Bei Facebook empfehlenBei Twitter postenGoogle plusPinterest

Das Wetter im Erzgebirge am 04.05.2015

Wetter und Klima am 04.05.2015 Holzhau im Erzgebirge (630m ü.NN)
Letzte gemessene Temperatur und Uhrzeit der Messung23:45:00 Uhr9.20 °C
Temperatur (Maximum / Höchstwert) und Uhrzeit der Messung15:15:00 Uhr21.60 °C
Temperatur (Minimum / Tiefstwert) und Uhrzeit der Messung23:45:009.20 °C
Errechneter Absolutwert der Temperaturschwankungen zwischen Tmin und Tmax des Tages12.40 K
Errechnete Tagesmitteltemperatur14.78646 °C
Gesamt - Niederschlag des Tages (in flüssiger Form)0.00 Liter / m²
Luftdruck (Maximum / Höchstwert) und Zeitpunkt der Messung20:45:00 Uhr1010.60 hPa
Luftdruck (Minimum / Tiefstwert) und Zeitpunkt der Messung01:45:00 Uhr1006.00 hPa
Errechneter Absolutwert der Luftdruckschwankungen des Tages4.60 hPa
Höchste gemessene Windgeschwindigkeit und Uhrzeit der Messung13:30:00 Uhr8.28 km/h
Errechnete Windhäufigkeit in Relation zu den Messwerten des Tages9.37500 %
Niedrigste Windkühle (Windchill) und Zeitpunkt der Messung03:00:00 Uhr8.60 °C
Taupunkt (Maximum / Höchstwert) und Uhrzeit der Messung12:30:00 Uhr13.00 °C
Taupunkt (Minimum / Tiefstwert) und Uhrzeit der Messung23:45:007.00 °C
Anzahl der automatisch eingelesenen Messwerte 96

Detaillierte Wetter- und Klima- Messwerte für den 04.05.2015 in Holzhau im Erzgebirge (630m ü.NN)
ZeitTemperaturLuftdruckRel. LuftfeuchteWindWindrichtungWindchillTaupunktNiederschlag l/m²
23:45:009.20 °C1009.70 hPa86.00 %7.00 °C 
23:30:009.30 °C1009.60 hPa86.00 %7.10 °C 
23:15:009.40 °C1009.20 hPa85.00 %7.00 °C 
23:00:009.80 °C1009.50 hPa85.00 %7.40 °C 
22:45:0010.10 °C1009.80 hPa85.00 %7.70 °C 
22:30:0010.30 °C1010.00 hPa85.00 %7.90 °C 
22:15:0010.50 °C1010.10 hPa85.00 %8.10 °C 
22:00:0010.80 °C1010.10 hPa85.00 %8.40 °C 
21:45:0011.00 °C1010.40 hPa84.00 %8.40 °C 
21:30:0011.30 °C1010.40 hPa83.00 %8.50 °C 
21:15:0011.40 °C1010.30 hPa80.00 %8.10 °C 
21:00:0012.10 °C1010.40 hPa78.00 %8.40 °C 
20:45:0012.70 °C1010.60 hPa76.00 %8.60 °C 
20:30:0013.70 °C1010.50 hPa73.00 %9.00 °C 
20:15:0014.90 °C1010.10 hPa71.00 %9.70 °C 
20:00:0016.20 °C1010.30 hPa69.00 %10.50 °C 
19:45:0017.10 °C1010.00 hPa67.00 %10.90 °C 
19:30:0017.10 °C1010.10 hPa66.00 %10.70 °C 
19:15:0017.90 °C1010.00 hPa62.00 %10.50 °C 
19:00:0018.70 °C1010.10 hPa57.00 %10.00 °C 
18:45:0019.20 °C1010.00 hPa54.00 %9.70 °C 
18:30:0019.90 °C1010.00 hPa51.00 %9.50 °C 
18:15:0020.50 °C1010.00 hPa51.00 %10.00 °C 
18:00:0021.30 °C1010.00 hPa51.00 %10.80 °C 
17:45:0021.30 °C1010.00 hPa50.00 %10.50 °C 
17:30:0021.50 °C1010.00 hPa50.00 %10.60 °C 
17:15:0021.10 °C1010.00 hPa53.00 %11.20 °C 
17:00:0020.10 °C1010.10 hPa53.00 %10.20 °C 
16:45:0020.60 °C1010.00 hPa53.00 %10.70 °C 
16:30:0020.20 °C1009.90 hPa54.00 %10.60 °C 
16:15:0020.40 °C1009.90 hPa52.00 %10.20 °C 
16:00:0020.40 °C1009.90 hPa56.00 %11.30 °C 
15:45:0020.80 °C1010.00 hPa53.00 %10.90 °C 
15:30:0021.30 °C1010.10 hPa52.00 %11.10 °C 
15:15:0021.60 °C1010.00 hPa52.00 %11.30 °C 
15:00:0020.60 °C1010.30 hPa55.00 %11.20 °C 
14:45:0020.60 °C1010.20 hPa53.00 %10.70 °C 
14:30:0020.80 °C1010.00 hPa54.00 %6.12 km/hW21.90 °C11.20 °C 
14:15:0020.40 °C1010.00 hPa54.00 %10.80 °C 
14:00:0020.20 °C1009.90 hPa57.00 %11.40 °C 
13:45:0019.10 °C1009.90 hPa60.00 %11.20 °C 
13:30:0019.00 °C1009.90 hPa60.00 %8.28 km/hSW19.50 °C11.10 °C 
13:15:0018.60 °C1010.00 hPa61.00 %10.90 °C 
13:00:0018.90 °C1009.90 hPa61.00 %11.20 °C 
12:45:0019.40 °C1009.90 hPa61.00 %5.04 km/hWNW20.40 °C11.70 °C 
12:30:0019.50 °C1010.00 hPa66.00 %13.00 °C 
12:15:0018.40 °C1009.80 hPa65.00 %11.70 °C 
12:00:0017.80 °C1009.80 hPa66.00 %11.40 °C 
11:45:0017.00 °C1009.70 hPa68.00 %11.10 °C 
11:30:0017.90 °C1009.60 hPa66.00 %11.50 °C 
11:15:0018.40 °C1009.60 hPa69.00 %12.60 °C 
11:00:0017.80 °C1009.70 hPa72.00 %12.70 °C 
10:45:0017.20 °C1009.60 hPa74.00 %12.50 °C 
10:30:0017.10 °C1009.40 hPa75.00 %5.76 km/hW17.70 °C12.60 °C 
10:15:0016.50 °C1009.40 hPa76.00 %12.30 °C 
10:00:0016.10 °C1009.50 hPa78.00 %3.60 km/hNNW16.10 °C12.30 °C 
09:45:0015.90 °C1009.30 hPa78.00 %7.20 km/hW16.10 °C12.10 °C 
09:30:0015.80 °C1009.10 hPa80.00 %12.40 °C 
09:15:0015.30 °C1009.10 hPa82.00 %12.20 °C 
09:00:0014.70 °C1009.10 hPa83.00 %11.80 °C 
08:45:0014.10 °C1009.20 hPa86.00 %6.48 km/hNNW14.10 °C11.80 °C 
08:30:0013.90 °C1009.00 hPa87.00 %11.80 °C 
08:15:0013.90 °C1008.80 hPa89.00 %12.10 °C 
08:00:0013.60 °C1008.50 hPa91.00 %12.20 °C 
07:45:0013.30 °C1008.50 hPa92.00 %12.00 °C 
07:30:0013.00 °C1008.20 hPa92.00 %11.70 °C 
07:15:0012.80 °C1007.90 hPa92.00 %11.50 °C 
07:00:0012.30 °C1008.00 hPa92.00 %11.00 °C 
06:45:0011.90 °C1007.70 hPa92.00 %10.60 °C 
06:30:0011.60 °C1007.50 hPa92.00 %10.30 °C 
06:15:0011.30 °C1007.10 hPa92.00 %10.00 °C 
06:00:0011.30 °C1007.00 hPa92.00 %10.00 °C 
05:45:0011.30 °C1006.90 hPa92.00 %10.00 °C 
05:30:0011.50 °C1006.90 hPa92.00 %10.20 °C 
05:15:0011.60 °C1006.90 hPa92.00 %10.30 °C 
05:00:0011.30 °C1006.80 hPa92.00 %10.00 °C 
04:45:0011.30 °C1006.70 hPa92.00 %8.28 km/hSSW10.50 °C10.00 °C 
04:30:0010.60 °C1006.80 hPa92.00 %9.40 °C 
04:15:009.90 °C1006.50 hPa92.00 %8.70 °C 
04:00:0010.10 °C1006.30 hPa92.00 %8.90 °C 
03:45:0010.10 °C1006.20 hPa92.00 %8.90 °C 
03:30:0010.30 °C1006.20 hPa92.00 %9.10 °C 
03:15:0010.20 °C1006.10 hPa92.00 %9.00 °C 
03:00:009.60 °C1006.10 hPa92.00 %7.92 km/hONO8.60 °C8.40 °C 
02:45:009.60 °C1006.40 hPa91.00 %8.20 °C 
02:30:009.80 °C1006.20 hPa91.00 %8.40 °C 
02:15:009.60 °C1006.10 hPa91.00 %8.20 °C 
02:00:009.60 °C1006.20 hPa91.00 %8.20 °C 
01:45:009.80 °C1006.00 hPa91.00 %8.40 °C 
01:30:0010.30 °C1006.00 hPa91.00 %8.90 °C 
01:15:0010.60 °C1006.20 hPa91.00 %9.20 °C 
01:00:0010.60 °C1006.10 hPa91.00 %9.20 °C 
00:45:0010.50 °C1006.30 hPa91.00 %9.10 °C 
00:30:0010.50 °C1006.10 hPa91.00 %9.10 °C 
00:15:0010.50 °C1006.10 hPa91.00 %9.10 °C 
00:00:0010.60 °C1006.10 hPa91.00 %9.20 °C 

Permanenter Link zu dieser Seite: Wetter im Erzgebirge am 04.05.2015
Performance-Info: Die Erstellung der Seite / Statistik(en) / Tabelle(n) erforderte 5 Datenbankserver-Abfrage(n) und dauerte 99 Millisekunden. (Dieser Messwert ist von der Gesamt-Auslastung des Servers abhängig.)
Erzgebirge - Wetter | Erzgebirge - Wetter (Mobilgeräte) | Komplette Klimadatenbank